Country
Station

 

Weather  for  Berens River Airport  -  Canada    Canada

  
14 °C (57 °F)
    
 
 

Current METAR for Berens River Airport is :

CYBV 162100Z 30010G17KT 280V350 15SM BKN020 BKN030 14/10 A3008 RMK SC5SC2 LAST STFD OBS/NEXT 171200UTC SLP195

 

This is a report for Berens River Airport - Canada.
 
The report was made 15 hours and 35 minutes ago, at 21:00 UTC .
The wind was blowing at a speed of 5.1 meters per second (11.5 miles per hour) with gusts up to 8.7 meters per second (19.6 miles per hour) from west/northwest (300°), varying between west (280°) and north (350°).
 
The temperature was 14 °C (57 °F), with a dew-point at 10 °C (50 °F).
The atmospheric pressure was 1019 hPa (30.08 inHg).
The relative humidity was 76.8%.
 
There were broken clouds at a height of 610 meters (2000 feet) and broken clouds at a height of 914 meters (3000 feet).
 
The overall visibility was 24.1 kilometers (15.0 miles).
 

 
 
 
 

Country :   A   B   C   D   E   F   G   H   I   J   K   L   M   N   O   P   Q   R   S   T   U   V   W   Y   Z

 

Site Info  |  Disclaimer  |  Credits  |  Privacy
Contact us  |  Add to favorites
© 2013-2018 METARs - All rights reserved